sensor_id;sensor_type;location;lat;lon;timestamp;temperature;humidity
54431;DHT22;40342;52.998;5.862;2022-12-18T00:02:04;-3.10;99.90
54431;DHT22;40342;52.998;5.862;2022-12-18T00:04:30;-3.10;99.90
54431;DHT22;40342;52.998;5.862;2022-12-18T00:06:56;-3.10;99.90
54431;DHT22;40342;52.998;5.862;2022-12-18T00:09:22;-3.10;99.90
54431;DHT22;40342;52.998;5.862;2022-12-18T00:11:47;-3.20;99.90
54431;DHT22;40342;52.998;5.862;2022-12-18T00:14:14;-3.20;99.90
54431;DHT22;40342;52.998;5.862;2022-12-18T00:16:40;-3.20;99.90
54431;DHT22;40342;52.998;5.862;2022-12-18T00:19:06;-3.20;99.90
54431;DHT22;40342;52.998;5.862;2022-12-18T00:21:33;-3.20;99.90
54431;DHT22;40342;52.998;5.862;2022-12-18T00:23:59;-3.20;99.90
54431;DHT22;40342;52.998;5.862;2022-12-18T00:26:27;-3.20;99.90
54431;DHT22;40342;52.998;5.862;2022-12-18T00:28:53;-3.20;99.90
54431;DHT22;40342;52.998;5.862;2022-12-18T00:31:22;-3.20;99.90
54431;DHT22;40342;52.998;5.862;2022-12-18T00:33:48;-3.30;99.90
54431;DHT22;40342;52.998;5.862;2022-12-18T00:36:20;-3.30;99.90
54431;DHT22;40342;52.998;5.862;2022-12-18T00:38:46;-3.20;99.90
54431;DHT22;40342;52.998;5.862;2022-12-18T00:41:13;-3.30;99.90
54431;DHT22;40342;52.998;5.862;2022-12-18T00:43:59;-3.30;99.90
54431;DHT22;40342;52.998;5.862;2022-12-18T00:46:25;-3.30;99.90
54431;DHT22;40342;52.998;5.862;2022-12-18T00:48:51;-3.40;99.90
54431;DHT22;40342;52.998;5.862;2022-12-18T00:51:16;-3.40;99.90
54431;DHT22;40342;52.998;5.862;2022-12-18T00:53:42;-3.40;99.90
54431;DHT22;40342;52.998;5.862;2022-12-18T00:56:07;-3.40;99.90
54431;DHT22;40342;52.998;5.862;2022-12-18T00:58:36;-3.50;99.90
54431;DHT22;40342;52.998;5.862;2022-12-18T01:01:04;-3.50;99.90
54431;DHT22;40342;52.998;5.862;2022-12-18T01:03:29;-3.50;99.90
54431;DHT22;40342;52.998;5.862;2022-12-18T01:05:56;-3.50;99.90
54431;DHT22;40342;52.998;5.862;2022-12-18T01:08:21;-3.50;99.90
54431;DHT22;40342;52.998;5.862;2022-12-18T01:10:47;-3.50;99.90
54431;DHT22;40342;52.998;5.862;2022-12-18T01:13:12;-3.40;99.90
54431;DHT22;40342;52.998;5.862;2022-12-18T01:15:38;-3.50;99.90
54431;DHT22;40342;52.998;5.862;2022-12-18T01:18:07;-3.50;99.90
54431;DHT22;40342;52.998;5.862;2022-12-18T01:20:32;-3.50;99.90
54431;DHT22;40342;52.998;5.862;2022-12-18T01:22:58;-3.50;99.90
54431;DHT22;40342;52.998;5.862;2022-12-18T01:25:24;-3.50;99.90
54431;DHT22;40342;52.998;5.862;2022-12-18T01:27:49;-3.50;99.90
54431;DHT22;40342;52.998;5.862;2022-12-18T01:30:15;-3.50;99.90
54431;DHT22;40342;52.998;5.862;2022-12-18T01:32:41;-3.50;99.90
54431;DHT22;40342;52.998;5.862;2022-12-18T01:35:07;-3.50;99.90
54431;DHT22;40342;52.998;5.862;2022-12-18T01:37:32;-3.60;99.90
54431;DHT22;40342;52.998;5.862;2022-12-18T01:39:58;-3.60;99.90
54431;DHT22;40342;52.998;5.862;2022-12-18T01:42:24;-3.60;99.90
54431;DHT22;40342;52.998;5.862;2022-12-18T01:45:00;-3.60;99.90
54431;DHT22;40342;52.998;5.862;2022-12-18T01:50:20;-3.60;99.90
54431;DHT22;40342;52.998;5.862;2022-12-18T01:53:07;-3.60;99.90
54431;DHT22;40342;52.998;5.862;2022-12-18T01:55:42;-3.60;99.90
54431;DHT22;40342;52.998;5.862;2022-12-18T01:58:13;-3.70;99.90
54431;DHT22;40342;52.998;5.862;2022-12-18T02:00:40;-3.70;99.90
54431;DHT22;40342;52.998;5.862;2022-12-18T02:03:06;-3.70;99.90
54431;DHT22;40342;52.998;5.862;2022-12-18T02:05:37;-3.70;99.90
54431;DHT22;40342;52.998;5.862;2022-12-18T02:08:35;-3.80;99.90
54431;DHT22;40342;52.998;5.862;2022-12-18T02:11:31;-3.80;99.90
54431;DHT22;40342;52.998;5.862;2022-12-18T02:17:03;-3.80;99.90
54431;DHT22;40342;52.998;5.862;2022-12-18T02:20:04;-3.80;99.90
54431;DHT22;40342;52.998;5.862;2022-12-18T02:25:24;-3.90;99.90
54431;DHT22;40342;52.998;5.862;2022-12-18T02:27:56;-3.90;99.90
54431;DHT22;40342;52.998;5.862;2022-12-18T02:30:24;-3.90;99.90
54431;DHT22;40342;52.998;5.862;2022-12-18T02:32:52;-3.90;99.90
54431;DHT22;40342;52.998;5.862;2022-12-18T02:35:30;-4.00;99.90
54431;DHT22;40342;52.998;5.862;2022-12-18T02:37:56;-3.90;99.90
54431;DHT22;40342;52.998;5.862;2022-12-18T02:40:24;-3.90;99.90
54431;DHT22;40342;52.998;5.862;2022-12-18T02:42:51;-4.00;99.90
54431;DHT22;40342;52.998;5.862;2022-12-18T02:45:17;-4.00;99.90
54431;DHT22;40342;52.998;5.862;2022-12-18T02:47:46;-4.10;99.90
54431;DHT22;40342;52.998;5.862;2022-12-18T02:50:38;-4.10;99.90
54431;DHT22;40342;52.998;5.862;2022-12-18T02:58:45;-4.10;99.90
54431;DHT22;40342;52.998;5.862;2022-12-18T03:06:47;-4.10;99.90
54431;DHT22;40342;52.998;5.862;2022-12-18T03:09:30;-4.10;99.90
54431;DHT22;40342;52.998;5.862;2022-12-18T03:12:04;-4.10;99.90
54431;DHT22;40342;52.998;5.862;2022-12-18T03:17:19;-4.20;99.90
54431;DHT22;40342;52.998;5.862;2022-12-18T03:19:49;-4.20;99.90
54431;DHT22;40342;52.998;5.862;2022-12-18T03:22:17;-4.20;99.90
54431;DHT22;40342;52.998;5.862;2022-12-18T03:24:45;-4.20;99.90
54431;DHT22;40342;52.998;5.862;2022-12-18T03:27:13;-4.20;99.90
54431;DHT22;40342;52.998;5.862;2022-12-18T03:29:46;-4.30;99.90
54431;DHT22;40342;52.998;5.862;2022-12-18T03:32:19;-4.30;99.90
54431;DHT22;40342;52.998;5.862;2022-12-18T03:34:49;-4.30;99.90
54431;DHT22;40342;52.998;5.862;2022-12-18T03:37:16;-4.30;99.90
54431;DHT22;40342;52.998;5.862;2022-12-18T03:39:41;-4.40;99.90
54431;DHT22;40342;52.998;5.862;2022-12-18T03:42:13;-4.40;99.90
54431;DHT22;40342;52.998;5.862;2022-12-18T03:49:50;-4.40;99.90
54431;DHT22;40342;52.998;5.862;2022-12-18T03:52:28;-4.40;99.90
54431;DHT22;40342;52.998;5.862;2022-12-18T03:54:56;-4.50;99.90
54431;DHT22;40342;52.998;5.862;2022-12-18T03:57:26;-4.50;99.90
54431;DHT22;40342;52.998;5.862;2022-12-18T04:00:05;-4.50;99.90
54431;DHT22;40342;52.998;5.862;2022-12-18T04:02:32;-4.50;99.90
54431;DHT22;40342;52.998;5.862;2022-12-18T04:05:02;-4.50;99.90
54431;DHT22;40342;52.998;5.862;2022-12-18T04:07:28;-4.60;99.90
54431;DHT22;40342;52.998;5.862;2022-12-18T04:09:56;-4.60;99.90
54431;DHT22;40342;52.998;5.862;2022-12-18T04:12:26;-4.60;99.90
54431;DHT22;40342;52.998;5.862;2022-12-18T04:14:53;-4.60;99.90
54431;DHT22;40342;52.998;5.862;2022-12-18T04:17:19;-4.50;99.90
54431;DHT22;40342;52.998;5.862;2022-12-18T04:19:45;-4.50;99.90
54431;DHT22;40342;52.998;5.862;2022-12-18T04:22:10;-4.50;99.90
54431;DHT22;40342;52.998;5.862;2022-12-18T04:24:36;-4.60;99.90
54431;DHT22;40342;52.998;5.862;2022-12-18T04:27:02;-4.60;99.90
54431;DHT22;40342;52.998;5.862;2022-12-18T04:29:28;-4.30;99.90
54431;DHT22;40342;52.998;5.862;2022-12-18T04:31:53;-4.50;99.90
54431;DHT22;40342;52.998;5.862;2022-12-18T04:34:19;-4.60;99.90
54431;DHT22;40342;52.998;5.862;2022-12-18T04:36:45;-4.60;99.90
54431;DHT22;40342;52.998;5.862;2022-12-18T04:39:11;-4.70;99.90
54431;DHT22;40342;52.998;5.862;2022-12-18T04:41:36;-4.70;99.90
54431;DHT22;40342;52.998;5.862;2022-12-18T04:44:02;-4.70;99.90
54431;DHT22;40342;52.998;5.862;2022-12-18T04:46:28;-4.70;99.90
54431;DHT22;40342;52.998;5.862;2022-12-18T04:48:54;-4.70;99.90
54431;DHT22;40342;52.998;5.862;2022-12-18T04:51:19;-4.70;99.90
54431;DHT22;40342;52.998;5.862;2022-12-18T04:53:45;-4.70;99.90
54431;DHT22;40342;52.998;5.862;2022-12-18T04:56:13;-4.70;99.90
54431;DHT22;40342;52.998;5.862;2022-12-18T04:58:40;-4.70;99.90
54431;DHT22;40342;52.998;5.862;2022-12-18T05:01:07;-4.70;99.90
54431;DHT22;40342;52.998;5.862;2022-12-18T05:03:33;-4.70;99.90
54431;DHT22;40342;52.998;5.862;2022-12-18T05:05:59;-4.70;99.90
54431;DHT22;40342;52.998;5.862;2022-12-18T05:08:24;-4.80;99.90
54431;DHT22;40342;52.998;5.862;2022-12-18T05:11:01;-4.50;99.90
54431;DHT22;40342;52.998;5.862;2022-12-18T05:13:27;-4.80;99.90
54431;DHT22;40342;52.998;5.862;2022-12-18T05:15:53;-4.80;99.90
54431;DHT22;40342;52.998;5.862;2022-12-18T05:18:19;-4.80;99.90
54431;DHT22;40342;52.998;5.862;2022-12-18T05:20:45;-4.90;99.90
54431;DHT22;40342;52.998;5.862;2022-12-18T05:23:10;-4.90;99.90
54431;DHT22;40342;52.998;5.862;2022-12-18T05:25:37;-4.40;99.90
54431;DHT22;40342;52.998;5.862;2022-12-18T05:28:03;-5.00;99.90
54431;DHT22;40342;52.998;5.862;2022-12-18T05:30:28;-5.00;99.90
54431;DHT22;40342;52.998;5.862;2022-12-18T05:32:54;-5.10;99.90
54431;DHT22;40342;52.998;5.862;2022-12-18T05:35:20;-5.10;99.90
54431;DHT22;40342;52.998;5.862;2022-12-18T05:37:45;-5.10;99.90
54431;DHT22;40342;52.998;5.862;2022-12-18T05:40:11;-5.10;99.90
54431;DHT22;40342;52.998;5.862;2022-12-18T05:42:37;-5.20;99.90
54431;DHT22;40342;52.998;5.862;2022-12-18T05:45:03;-5.20;99.90
54431;DHT22;40342;52.998;5.862;2022-12-18T05:47:29;-5.20;99.90
54431;DHT22;40342;52.998;5.862;2022-12-18T05:49:55;-5.20;99.90
54431;DHT22;40342;52.998;5.862;2022-12-18T05:52:21;-5.20;99.90
54431;DHT22;40342;52.998;5.862;2022-12-18T05:54:46;-5.20;99.90
54431;DHT22;40342;52.998;5.862;2022-12-18T05:57:12;-5.20;99.90
54431;DHT22;40342;52.998;5.862;2022-12-18T05:59:37;-5.00;99.90
54431;DHT22;40342;52.998;5.862;2022-12-18T06:02:03;-5.20;99.90
54431;DHT22;40342;52.998;5.862;2022-12-18T06:04:28;-5.30;99.90
54431;DHT22;40342;52.998;5.862;2022-12-18T06:06:54;-5.30;99.90
54431;DHT22;40342;52.998;5.862;2022-12-18T06:09:20;-5.30;99.90
54431;DHT22;40342;52.998;5.862;2022-12-18T06:11:45;-5.20;99.90
54431;DHT22;40342;52.998;5.862;2022-12-18T06:14:11;-5.20;99.90
54431;DHT22;40342;52.998;5.862;2022-12-18T06:16:36;-5.20;99.90
54431;DHT22;40342;52.998;5.862;2022-12-18T06:19:04;-5.20;99.90
54431;DHT22;40342;52.998;5.862;2022-12-18T06:21:31;-5.20;99.90
54431;DHT22;40342;52.998;5.862;2022-12-18T06:23:56;-5.20;99.90
54431;DHT22;40342;52.998;5.862;2022-12-18T06:26:22;-5.20;99.90
54431;DHT22;40342;52.998;5.862;2022-12-18T06:28:49;-5.20;99.90
54431;DHT22;40342;52.998;5.862;2022-12-18T06:31:14;-5.30;99.90
54431;DHT22;40342;52.998;5.862;2022-12-18T06:33:40;-5.30;99.90
54431;DHT22;40342;52.998;5.862;2022-12-18T06:36:09;-5.30;99.90
54431;DHT22;40342;52.998;5.862;2022-12-18T06:38:37;-5.30;99.90
54431;DHT22;40342;52.998;5.862;2022-12-18T06:41:15;-5.30;99.90
54431;DHT22;40342;52.998;5.862;2022-12-18T06:43:41;-5.30;99.90
54431;DHT22;40342;52.998;5.862;2022-12-18T06:46:08;-5.00;99.90
54431;DHT22;40342;52.998;5.862;2022-12-18T06:48:34;-5.30;99.90
54431;DHT22;40342;52.998;5.862;2022-12-18T06:50:59;-5.30;99.90
54431;DHT22;40342;52.998;5.862;2022-12-18T06:53:26;-5.30;99.90
54431;DHT22;40342;52.998;5.862;2022-12-18T06:55:51;-4.60;99.90
54431;DHT22;40342;52.998;5.862;2022-12-18T06:58:17;-5.30;99.90
54431;DHT22;40342;52.998;5.862;2022-12-18T07:00:43;-5.30;99.90
54431;DHT22;40342;52.998;5.862;2022-12-18T07:03:09;-4.80;99.90
54431;DHT22;40342;52.998;5.862;2022-12-18T07:05:39;-5.30;99.90
54431;DHT22;40342;52.998;5.862;2022-12-18T07:08:06;-5.20;99.90
54431;DHT22;40342;52.998;5.862;2022-12-18T07:10:32;-5.30;99.90
54431;DHT22;40342;52.998;5.862;2022-12-18T07:12:57;-5.30;99.90
54431;DHT22;40342;52.998;5.862;2022-12-18T07:15:23;-5.30;99.90
54431;DHT22;40342;52.998;5.862;2022-12-18T07:17:48;-5.00;99.90
54431;DHT22;40342;52.998;5.862;2022-12-18T07:20:14;-5.30;99.90
54431;DHT22;40342;52.998;5.862;2022-12-18T07:22:39;-5.30;99.90
54431;DHT22;40342;52.998;5.862;2022-12-18T07:25:06;-5.20;99.90
54431;DHT22;40342;52.998;5.862;2022-12-18T07:27:31;-5.30;99.90
54431;DHT22;40342;52.998;5.862;2022-12-18T07:29:57;-5.30;99.90
54431;DHT22;40342;52.998;5.862;2022-12-18T07:32:22;-5.30;99.90
54431;DHT22;40342;52.998;5.862;2022-12-18T07:34:48;-5.20;99.90
54431;DHT22;40342;52.998;5.862;2022-12-18T07:37:14;-5.20;99.90
54431;DHT22;40342;52.998;5.862;2022-12-18T07:39:39;-4.70;99.90
54431;DHT22;40342;52.998;5.862;2022-12-18T07:42:08;-5.20;99.90
54431;DHT22;40342;52.998;5.862;2022-12-18T07:44:52;-5.10;99.90
54431;DHT22;40342;52.998;5.862;2022-12-18T07:47:17;-5.20;99.90
54431;DHT22;40342;52.998;5.862;2022-12-18T07:49:43;-4.70;99.90
54431;DHT22;40342;52.998;5.862;2022-12-18T07:52:08;-5.20;99.90
54431;DHT22;40342;52.998;5.862;2022-12-18T07:54:35;-5.20;99.90
54431;DHT22;40342;52.998;5.862;2022-12-18T07:57:00;-5.20;99.90
54431;DHT22;40342;52.998;5.862;2022-12-18T07:59:26;-5.20;99.90
54431;DHT22;40342;52.998;5.862;2022-12-18T08:01:52;-4.90;99.90
54431;DHT22;40342;52.998;5.862;2022-12-18T08:04:17;-5.20;99.90
54431;DHT22;40342;52.998;5.862;2022-12-18T08:06:43;-5.20;99.90
54431;DHT22;40342;52.998;5.862;2022-12-18T08:09:10;-5.10;99.90
54431;DHT22;40342;52.998;5.862;2022-12-18T08:11:35;-5.10;99.90
54431;DHT22;40342;52.998;5.862;2022-12-18T08:14:01;-5.10;99.90
54431;DHT22;40342;52.998;5.862;2022-12-18T08:16:26;-5.10;99.90
54431;DHT22;40342;52.998;5.862;2022-12-18T08:18:53;-4.40;99.90
54431;DHT22;40342;52.998;5.862;2022-12-18T08:21:21;-5.00;99.90
54431;DHT22;40342;52.998;5.862;2022-12-18T08:23:49;-4.90;99.90
54431;DHT22;40342;52.998;5.862;2022-12-18T08:26:15;-4.90;99.90
54431;DHT22;40342;52.998;5.862;2022-12-18T08:28:41;-4.90;99.90
54431;DHT22;40342;52.998;5.862;2022-12-18T08:31:07;-4.80;99.90
54431;DHT22;40342;52.998;5.862;2022-12-18T08:33:34;-4.70;99.90
54431;DHT22;40342;52.998;5.862;2022-12-18T08:36:00;-4.80;99.90
54431;DHT22;40342;52.998;5.862;2022-12-18T08:38:26;-4.70;99.90
54431;DHT22;40342;52.998;5.862;2022-12-18T08:41:03;-4.70;99.90
54431;DHT22;40342;52.998;5.862;2022-12-18T08:43:29;-4.50;99.90
54431;DHT22;40342;52.998;5.862;2022-12-18T08:46:17;-4.60;99.90
54431;DHT22;40342;52.998;5.862;2022-12-18T08:48:43;-4.50;99.90
54431;DHT22;40342;52.998;5.862;2022-12-18T08:51:09;-4.40;99.90
54431;DHT22;40342;52.998;5.862;2022-12-18T08:53:35;-3.70;99.90
54431;DHT22;40342;52.998;5.862;2022-12-18T08:56:01;-4.30;99.90
54431;DHT22;40342;52.998;5.862;2022-12-18T08:58:27;-4.30;99.90
54431;DHT22;40342;52.998;5.862;2022-12-18T09:00:52;-4.20;99.90
54431;DHT22;40342;52.998;5.862;2022-12-18T09:03:19;-4.20;99.90
54431;DHT22;40342;52.998;5.862;2022-12-18T09:05:48;-4.10;99.90
54431;DHT22;40342;52.998;5.862;2022-12-18T09:08:14;-4.10;99.90
54431;DHT22;40342;52.998;5.862;2022-12-18T09:10:47;-4.00;99.90
54431;DHT22;40342;52.998;5.862;2022-12-18T09:13:13;-4.00;99.90
54431;DHT22;40342;52.998;5.862;2022-12-18T09:15:51;-3.90;99.90
54431;DHT22;40342;52.998;5.862;2022-12-18T09:18:19;-3.80;99.90
54431;DHT22;40342;52.998;5.862;2022-12-18T09:20:45;-3.80;99.90
54431;DHT22;40342;52.998;5.862;2022-12-18T09:23:11;-3.70;99.90
54431;DHT22;40342;52.998;5.862;2022-12-18T09:25:37;-3.70;99.90
54431;DHT22;40342;52.998;5.862;2022-12-18T09:28:05;-3.70;99.90
54431;DHT22;40342;52.998;5.862;2022-12-18T09:30:31;-3.60;99.90
54431;DHT22;40342;52.998;5.862;2022-12-18T09:32:59;-3.50;99.90
54431;DHT22;40342;52.998;5.862;2022-12-18T09:35:24;-3.50;99.90
54431;DHT22;40342;52.998;5.862;2022-12-18T09:37:50;-3.40;99.90
54431;DHT22;40342;52.998;5.862;2022-12-18T09:40:19;-3.40;99.90
54431;DHT22;40342;52.998;5.862;2022-12-18T09:42:51;-3.20;99.90
54431;DHT22;40342;52.998;5.862;2022-12-18T09:45:18;-3.20;99.90
54431;DHT22;40342;52.998;5.862;2022-12-18T09:47:45;-3.10;99.90
54431;DHT22;40342;52.998;5.862;2022-12-18T09:50:29;-3.10;99.90
54431;DHT22;40342;52.998;5.862;2022-12-18T09:52:59;-3.00;99.90
54431;DHT22;40342;52.998;5.862;2022-12-18T09:55:32;-2.90;99.90
54431;DHT22;40342;52.998;5.862;2022-12-18T09:58:06;-2.80;99.90
54431;DHT22;40342;52.998;5.862;2022-12-18T10:00:35;-2.70;99.90
54431;DHT22;40342;52.998;5.862;2022-12-18T10:03:12;-2.60;99.90
54431;DHT22;40342;52.998;5.862;2022-12-18T10:06:07;-2.60;99.90
54431;DHT22;40342;52.998;5.862;2022-12-18T10:11:48;-2.50;99.90
54431;DHT22;40342;52.998;5.862;2022-12-18T10:20:00;-2.50;99.90
54431;DHT22;40342;52.998;5.862;2022-12-18T10:25:04;-2.50;99.90
54431;DHT22;40342;52.998;5.862;2022-12-18T10:27:31;-2.60;99.90
54431;DHT22;40342;52.998;5.862;2022-12-18T10:29:57;-2.60;99.90
54431;DHT22;40342;52.998;5.862;2022-12-18T10:32:28;-2.50;99.90
54431;DHT22;40342;52.998;5.862;2022-12-18T10:34:56;-2.50;99.90
54431;DHT22;40342;52.998;5.862;2022-12-18T10:37:26;-2.50;99.90
54431;DHT22;40342;52.998;5.862;2022-12-18T10:40:15;-2.50;99.90
54431;DHT22;40342;52.998;5.862;2022-12-18T10:42:40;-2.50;99.90
54431;DHT22;40342;52.998;5.862;2022-12-18T10:45:15;-2.50;99.90
54431;DHT22;40342;52.998;5.862;2022-12-18T10:47:48;-2.50;99.90
54431;DHT22;40342;52.998;5.862;2022-12-18T10:50:31;-2.50;99.90
54431;DHT22;40342;52.998;5.862;2022-12-18T10:52:59;-2.40;99.90
54431;DHT22;40342;52.998;5.862;2022-12-18T10:55:31;-2.40;99.90
54431;DHT22;40342;52.998;5.862;2022-12-18T11:00:45;-2.40;99.90
54431;DHT22;40342;52.998;5.862;2022-12-18T11:03:35;-2.40;99.90
54431;DHT22;40342;52.998;5.862;2022-12-18T11:06:10;-2.40;99.90
54431;DHT22;40342;52.998;5.862;2022-12-18T11:08:36;-2.30;99.90
54431;DHT22;40342;52.998;5.862;2022-12-18T11:11:06;-2.30;99.90
54431;DHT22;40342;52.998;5.862;2022-12-18T11:13:32;-2.30;99.90
54431;DHT22;40342;52.998;5.862;2022-12-18T11:15:58;-2.30;99.90
54431;DHT22;40342;52.998;5.862;2022-12-18T11:18:32;-2.30;99.90
54431;DHT22;40342;52.998;5.862;2022-12-18T11:21:09;-2.20;99.90
54431;DHT22;40342;52.998;5.862;2022-12-18T11:23:49;-2.20;99.90
54431;DHT22;40342;52.998;5.862;2022-12-18T11:26:15;-2.20;99.90
54431;DHT22;40342;52.998;5.862;2022-12-18T11:28:47;-2.20;99.90
54431;DHT22;40342;52.998;5.862;2022-12-18T11:31:18;-2.20;99.90
54431;DHT22;40342;52.998;5.862;2022-12-18T11:36:22;-2.10;99.90
54431;DHT22;40342;52.998;5.862;2022-12-18T11:38:49;-2.10;99.90
54431;DHT22;40342;52.998;5.862;2022-12-18T11:41:23;-2.10;99.90
54431;DHT22;40342;52.998;5.862;2022-12-18T11:44:24;-2.10;99.90
54431;DHT22;40342;52.998;5.862;2022-12-18T11:47:05;-2.00;99.90
54431;DHT22;40342;52.998;5.862;2022-12-18T11:49:35;-2.00;99.90
54431;DHT22;40342;52.998;5.862;2022-12-18T11:52:14;-2.00;99.90
54431;DHT22;40342;52.998;5.862;2022-12-18T11:54:41;-2.00;99.90
54431;DHT22;40342;52.998;5.862;2022-12-18T12:00:07;-2.00;99.90
54431;DHT22;40342;52.998;5.862;2022-12-18T12:14:57;-1.90;99.90
54431;DHT22;40342;52.998;5.862;2022-12-18T12:17:49;-1.90;99.90
54431;DHT22;40342;52.998;5.862;2022-12-18T12:23:15;-1.80;99.90
54431;DHT22;40342;52.998;5.862;2022-12-18T12:25:51;-1.80;99.90
54431;DHT22;40342;52.998;5.862;2022-12-18T12:31:27;-1.70;99.90
54431;DHT22;40342;52.998;5.862;2022-12-18T12:39:25;-1.70;99.90
54431;DHT22;40342;52.998;5.862;2022-12-18T12:41:55;-1.60;99.90
54431;DHT22;40342;52.998;5.862;2022-12-18T12:44:44;-1.60;99.90
54431;DHT22;40342;52.998;5.862;2022-12-18T12:47:41;-1.50;99.90
54431;DHT22;40342;52.998;5.862;2022-12-18T12:50:15;-1.50;99.90
54431;DHT22;40342;52.998;5.862;2022-12-18T12:52:52;-1.60;99.90
54431;DHT22;40342;52.998;5.862;2022-12-18T12:55:24;-1.50;99.90
54431;DHT22;40342;52.998;5.862;2022-12-18T12:58:02;-1.50;99.90
54431;DHT22;40342;52.998;5.862;2022-12-18T13:00:39;-1.50;99.90
54431;DHT22;40342;52.998;5.862;2022-12-18T13:03:15;-1.50;99.90
54431;DHT22;40342;52.998;5.862;2022-12-18T13:05:53;-1.50;99.90
54431;DHT22;40342;52.998;5.862;2022-12-18T13:08:30;-1.50;99.90
54431;DHT22;40342;52.998;5.862;2022-12-18T13:10:58;-1.50;99.90
54431;DHT22;40342;52.998;5.862;2022-12-18T13:13:54;-1.50;99.90
54431;DHT22;40342;52.998;5.862;2022-12-18T13:16:24;-1.50;99.90
54431;DHT22;40342;52.998;5.862;2022-12-18T13:18:52;-1.50;99.90
54431;DHT22;40342;52.998;5.862;2022-12-18T13:21:30;-1.50;99.90
54431;DHT22;40342;52.998;5.862;2022-12-18T13:24:15;-1.40;99.90
54431;DHT22;40342;52.998;5.862;2022-12-18T13:26:45;-1.50;99.90
54431;DHT22;40342;52.998;5.862;2022-12-18T13:29:10;-1.50;99.90
54431;DHT22;40342;52.998;5.862;2022-12-18T13:34:18;-1.50;99.90
54431;DHT22;40342;52.998;5.862;2022-12-18T13:36:44;-1.40;99.90
54431;DHT22;40342;52.998;5.862;2022-12-18T13:41:38;-1.50;99.90
54431;DHT22;40342;52.998;5.862;2022-12-18T13:46:53;-1.40;99.90
54431;DHT22;40342;52.998;5.862;2022-12-18T13:49:36;-1.40;99.90
54431;DHT22;40342;52.998;5.862;2022-12-18T13:52:18;-1.50;99.90
54431;DHT22;40342;52.998;5.862;2022-12-18T13:54:52;-1.40;99.90
54431;DHT22;40342;52.998;5.862;2022-12-18T13:57:33;-1.40;99.90
54431;DHT22;40342;52.998;5.862;2022-12-18T14:02:45;-1.40;99.90
54431;DHT22;40342;52.998;5.862;2022-12-18T14:07:53;-1.50;99.90
54431;DHT22;40342;52.998;5.862;2022-12-18T14:10:19;-1.50;99.90
54431;DHT22;40342;52.998;5.862;2022-12-18T14:12:49;-1.40;99.90
54431;DHT22;40342;52.998;5.862;2022-12-18T14:15:43;-1.40;99.90
54431;DHT22;40342;52.998;5.862;2022-12-18T14:18:25;-1.40;99.90
54431;DHT22;40342;52.998;5.862;2022-12-18T14:20:54;-1.40;99.90
54431;DHT22;40342;52.998;5.862;2022-12-18T14:23:40;-1.50;99.90
54431;DHT22;40342;52.998;5.862;2022-12-18T14:26:26;-1.50;99.90
54431;DHT22;40342;52.998;5.862;2022-12-18T14:28:57;-1.40;99.90
54431;DHT22;40342;52.998;5.862;2022-12-18T14:31:29;-1.50;99.90
54431;DHT22;40342;52.998;5.862;2022-12-18T14:33:55;-1.50;99.90
54431;DHT22;40342;52.998;5.862;2022-12-18T14:36:26;-1.50;99.90
54431;DHT22;40342;52.998;5.862;2022-12-18T14:38:56;-1.50;99.90
54431;DHT22;40342;52.998;5.862;2022-12-18T14:41:22;-1.50;99.90
54431;DHT22;40342;52.998;5.862;2022-12-18T14:43:51;-1.50;99.90
54431;DHT22;40342;52.998;5.862;2022-12-18T14:46:33;-1.50;99.90
54431;DHT22;40342;52.998;5.862;2022-12-18T14:51:51;-1.50;99.90
54431;DHT22;40342;52.998;5.862;2022-12-18T14:54:19;-1.50;99.90
54431;DHT22;40342;52.998;5.862;2022-12-18T14:56:55;-1.50;99.90
54431;DHT22;40342;52.998;5.862;2022-12-18T14:59:25;-1.50;99.90
54431;DHT22;40342;52.998;5.862;2022-12-18T15:04:27;-1.50;99.90
54431;DHT22;40342;52.998;5.862;2022-12-18T15:07:16;-1.50;99.90
54431;DHT22;40342;52.998;5.862;2022-12-18T15:10:14;-1.50;99.90
54431;DHT22;40342;52.998;5.862;2022-12-18T15:18:03;-1.50;99.90
54431;DHT22;40342;52.998;5.862;2022-12-18T15:20:40;-1.50;99.90
54431;DHT22;40342;52.998;5.862;2022-12-18T15:23:24;-1.50;99.90
54431;DHT22;40342;52.998;5.862;2022-12-18T15:26:02;-1.50;99.90
54431;DHT22;40342;52.998;5.862;2022-12-18T15:28:44;-1.50;99.90
54431;DHT22;40342;52.998;5.862;2022-12-18T15:33:41;-1.50;99.90
54431;DHT22;40342;52.998;5.862;2022-12-18T15:36:15;-1.50;99.90
54431;DHT22;40342;52.998;5.862;2022-12-18T15:38:41;-1.50;99.90
54431;DHT22;40342;52.998;5.862;2022-12-18T15:41:19;-1.50;99.90
54431;DHT22;40342;52.998;5.862;2022-12-18T15:43:48;-1.50;99.90
54431;DHT22;40342;52.998;5.862;2022-12-18T15:46:16;-1.50;99.90
54431;DHT22;40342;52.998;5.862;2022-12-18T15:48:44;-1.50;99.90
54431;DHT22;40342;52.998;5.862;2022-12-18T15:51:24;-1.40;99.90
54431;DHT22;40342;52.998;5.862;2022-12-18T15:53:56;-1.40;99.90
54431;DHT22;40342;52.998;5.862;2022-12-18T15:56:23;-1.40;99.90
54431;DHT22;40342;52.998;5.862;2022-12-18T15:59:16;-1.40;99.90
54431;DHT22;40342;52.998;5.862;2022-12-18T16:01:44;-1.40;99.90
54431;DHT22;40342;52.998;5.862;2022-12-18T16:04:12;-1.40;99.90
54431;DHT22;40342;52.998;5.862;2022-12-18T16:06:39;-1.40;99.90
54431;DHT22;40342;52.998;5.862;2022-12-18T16:09:04;-1.40;99.90
54431;DHT22;40342;52.998;5.862;2022-12-18T16:11:31;-1.30;99.90
54431;DHT22;40342;52.998;5.862;2022-12-18T16:14:25;-1.30;99.90
54431;DHT22;40342;52.998;5.862;2022-12-18T16:16:56;-1.30;99.90
54431;DHT22;40342;52.998;5.862;2022-12-18T16:19:22;-1.30;99.90
54431;DHT22;40342;52.998;5.862;2022-12-18T16:21:49;-1.30;99.90
54431;DHT22;40342;52.998;5.862;2022-12-18T16:24:22;-1.30;99.90
54431;DHT22;40342;52.998;5.862;2022-12-18T16:26:48;-1.30;99.90
54431;DHT22;40342;52.998;5.862;2022-12-18T16:29:14;-1.30;99.90
54431;DHT22;40342;52.998;5.862;2022-12-18T16:31:40;-1.20;99.90
54431;DHT22;40342;52.998;5.862;2022-12-18T16:34:31;-1.20;99.90
54431;DHT22;40342;52.998;5.862;2022-12-18T16:37:01;-1.20;99.90
54431;DHT22;40342;52.998;5.862;2022-12-18T16:39:28;-1.20;99.90
54431;DHT22;40342;52.998;5.862;2022-12-18T16:41:53;-1.20;99.90
54431;DHT22;40342;52.998;5.862;2022-12-18T16:44:19;-1.20;99.90
54431;DHT22;40342;52.998;5.862;2022-12-18T16:46:45;-1.20;99.90
54431;DHT22;40342;52.998;5.862;2022-12-18T16:49:13;-1.20;99.90
54431;DHT22;40342;52.998;5.862;2022-12-18T16:51:39;-1.20;99.90
54431;DHT22;40342;52.998;5.862;2022-12-18T16:54:05;-1.10;99.90
54431;DHT22;40342;52.998;5.862;2022-12-18T16:56:31;-1.10;99.90
54431;DHT22;40342;52.998;5.862;2022-12-18T16:58:59;-1.10;99.90
54431;DHT22;40342;52.998;5.862;2022-12-18T17:01:26;-1.10;99.90
54431;DHT22;40342;52.998;5.862;2022-12-18T17:03:58;-1.10;99.90
54431;DHT22;40342;52.998;5.862;2022-12-18T17:06:24;-1.10;99.90
54431;DHT22;40342;52.998;5.862;2022-12-18T17:08:55;-1.00;99.90
54431;DHT22;40342;52.998;5.862;2022-12-18T17:11:23;-1.00;99.90
54431;DHT22;40342;52.998;5.862;2022-12-18T17:13:48;-1.00;99.90
54431;DHT22;40342;52.998;5.862;2022-12-18T17:16:14;-1.00;99.90
54431;DHT22;40342;52.998;5.862;2022-12-18T17:18:40;-1.00;99.90
54431;DHT22;40342;52.998;5.862;2022-12-18T17:21:06;-1.00;99.90
54431;DHT22;40342;52.998;5.862;2022-12-18T17:23:34;-1.00;99.90
54431;DHT22;40342;52.998;5.862;2022-12-18T17:25:59;-1.00;99.90